Time;durP1;ratioP1;P1;durP2;ratioP2;P2;SDS_P1;SDS_P2;PMS_P1;PMS_P2;Temp;Humidity;BMP_temperature;BMP_pressure;BME280_temperature;BME280_humidity;BME280_pressure;Samples;Min_cycle;Max_cycle;Signal;HPM_P1;HPM_P2
2023/04/06 00:01:08;;;;;;;68.00;44.70;;;0.30;99.90;;;;;;5012654;28;20240;-80
2023/04/06 00:03:35;;;;;;;72.45;46.08;;;0.30;99.90;;;;;;5009075;28;20210;-79
2023/04/06 00:06:03;;;;;;;59.30;44.88;;;0.30;99.90;;;;;;5006344;28;20240;-81
2023/04/06 00:08:31;;;;;;;70.68;45.55;;;0.30;99.90;;;;;;5004790;28;20394;-80
2023/04/06 00:10:58;;;;;;;74.85;46.67;;;0.30;99.90;;;;;;5006426;28;20213;-80
2023/04/06 00:13:25;;;;;;;80.00;47.75;;;0.20;99.90;;;;;;5006117;28;20264;-80
2023/04/06 00:15:52;;;;;;;73.45;48.72;;;0.20;99.90;;;;;;5010075;28;20232;-79
2023/04/06 00:18:22;;;;;;;75.78;49.03;;;0.10;99.90;;;;;;5010525;28;20263;-81
2023/04/06 00:20:50;;;;;;;74.07;48.28;;;0.10;99.90;;;;;;4982951;28;20205;-81
2023/04/06 00:23:18;;;;;;;61.58;47.28;;;0.10;99.90;;;;;;5005799;28;20210;-80
2023/04/06 00:25:45;;;;;;;70.07;47.08;;;0.00;99.90;;;;;;5003558;28;20247;-80
2023/04/06 00:28:12;;;;;;;66.47;46.67;;;0.10;99.90;;;;;;5012398;28;20231;-82
2023/04/06 00:30:39;;;;;;;70.07;45.38;;;0.20;99.90;;;;;;5010320;28;20260;-81
2023/04/06 00:33:07;;;;;;;74.65;44.50;;;0.20;99.90;;;;;;5009337;28;20198;-80
2023/04/06 00:35:35;;;;;;;81.55;44.53;;;0.10;99.90;;;;;;5000180;28;20229;-81
2023/04/06 00:38:02;;;;;;;60.50;43.80;;;0.10;99.90;;;;;;4999792;28;20201;-80
2023/04/06 00:40:30;;;;;;;66.57;47.33;;;0.10;99.90;;;;;;4999938;28;20210;-81
2023/04/06 00:42:57;;;;;;;70.05;48.55;;;0.00;99.90;;;;;;5003369;28;20209;-82
2023/04/06 00:45:24;;;;;;;65.50;46.53;;;0.00;99.90;;;;;;5007270;28;20501;-82
2023/04/06 00:47:51;;;;;;;72.05;47.80;;;-0.10;99.90;;;;;;4997829;28;20251;-81
2023/04/06 00:50:20;;;;;;;75.82;49.17;;;-0.10;99.90;;;;;;4999414;28;20219;-81
2023/04/06 00:52:47;;;;;;;80.90;52.22;;;-0.60;99.90;;;;;;4984597;28;20429;-81
2023/04/06 00:55:14;;;;;;;69.32;48.90;;;-0.40;99.90;;;;;;4991805;28;20237;-81
2023/04/06 00:57:42;;;;;;;74.57;51.78;;;-0.30;99.90;;;;;;5004395;28;20219;-81
2023/04/06 01:00:09;;;;;;;75.75;50.67;;;-0.20;99.90;;;;;;5024747;28;20247;-81
2023/04/06 01:02:37;;;;;;;75.00;49.72;;;-0.10;99.90;;;;;;5017230;28;20248;-81
2023/04/06 01:05:04;;;;;;;77.95;51.95;;;-0.20;99.90;;;;;;5017451;28;20223;-80
2023/04/06 01:07:32;;;;;;;81.18;50.72;;;-0.20;99.90;;;;;;5000583;28;20210;-81
2023/04/06 01:09:58;;;;;;;83.55;53.63;;;-0.50;99.90;;;;;;5007525;28;20213;-82
2023/04/06 01:12:26;;;;;;;83.60;51.83;;;-0.30;99.90;;;;;;4985754;28;20208;-81
2023/04/06 01:14:53;;;;;;;73.85;52.58;;;-0.20;99.90;;;;;;4999224;28;20288;-81
2023/04/06 01:17:21;;;;;;;75.95;51.30;;;-0.20;99.90;;;;;;5001589;28;20209;-80
2023/04/06 01:19:51;;;;;;;91.53;52.15;;;-0.10;99.90;;;;;;5009239;28;20201;-81
2023/04/06 01:22:18;;;;;;;81.50;55.58;;;-0.10;99.90;;;;;;5009888;28;20212;-80
2023/04/06 01:24:46;;;;;;;82.30;51.75;;;-0.20;99.90;;;;;;5002163;28;20209;-81
2023/04/06 01:27:13;;;;;;;93.20;55.05;;;-0.40;99.90;;;;;;5004532;28;20202;-80
2023/04/06 01:29:41;;;;;;;82.78;51.85;;;-0.30;99.90;;;;;;4968529;28;20733;-81
2023/04/06 01:32:08;;;;;;;87.78;54.97;;;-0.40;99.90;;;;;;4997422;28;20215;-81
2023/04/06 01:34:35;;;;;;;85.82;56.20;;;-0.40;99.90;;;;;;5003657;28;20202;-82
2023/04/06 01:37:02;;;;;;;85.40;53.53;;;-0.20;99.90;;;;;;4996910;28;20201;-82
2023/04/06 01:39:30;;;;;;;86.30;53.15;;;-0.40;99.90;;;;;;5003479;28;20205;-82
2023/04/06 01:41:59;;;;;;;89.15;56.38;;;-0.50;99.90;;;;;;5016951;28;20205;-84
2023/04/06 01:44:35;;;;;;;81.22;53.78;;;-0.40;99.90;;;;;;5007209;28;20211;-82
2023/04/06 01:47:02;;;;;;;94.05;56.78;;;-0.40;99.90;;;;;;5018104;28;20201;-82
2023/04/06 01:49:29;;;;;;;78.20;52.08;;;-0.40;99.90;;;;;;5020805;28;20201;-83
2023/04/06 01:51:56;;;;;;;81.18;53.03;;;-0.50;99.90;;;;;;5017624;28;20212;-81
2023/04/06 01:54:23;;;;;;;90.07;57.33;;;-0.60;99.90;;;;;;5009640;28;20272;-82
2023/04/06 01:56:52;;;;;;;94.60;56.38;;;-0.40;99.90;;;;;;5019184;28;20228;-82
2023/04/06 01:59:19;;;;;;;74.13;50.83;;;-0.40;99.90;;;;;;4996978;28;20419;-83
2023/04/06 02:01:46;;;;;;;83.13;50.67;;;-0.40;99.90;;;;;;5017289;28;20209;-82
2023/04/06 02:04:15;;;;;;;73.10;51.78;;;-0.30;99.90;;;;;;5012222;28;20200;-82
2023/04/06 02:06:43;;;;;;;77.45;53.35;;;-0.50;99.90;;;;;;5004792;28;20215;-82
2023/04/06 02:09:10;;;;;;;83.03;54.83;;;-0.50;99.90;;;;;;5003862;28;20205;-84
2023/04/06 02:11:38;;;;;;;82.80;54.28;;;-0.30;99.90;;;;;;5006415;28;20212;-82
2023/04/06 02:14:05;;;;;;;86.40;55.40;;;-0.40;99.90;;;;;;5002976;28;20218;-82
2023/04/06 02:16:35;;;;;;;86.22;56.38;;;-0.50;99.90;;;;;;5004546;28;20295;-84
2023/04/06 02:19:04;;;;;;;95.43;61.40;;;-0.60;99.90;;;;;;5009447;28;20209;-84
2023/04/06 02:21:31;;;;;;;101.88;57.97;;;-0.50;99.90;;;;;;4986738;28;20218;-86
2023/04/06 02:24:00;;;;;;;88.47;58.40;;;-0.60;99.90;;;;;;4993889;28;20669;-83
2023/04/06 02:26:27;;;;;;;101.05;60.90;;;-0.50;99.90;;;;;;5006937;28;20214;-82
2023/04/06 02:28:55;;;;;;;87.72;55.13;;;-0.70;99.90;;;;;;4988459;28;20194;-82
2023/04/06 02:31:23;;;;;;;93.25;57.80;;;-0.70;99.90;;;;;;4988661;28;20286;-83
2023/04/06 02:33:50;;;;;;;87.60;58.85;;;-0.70;99.90;;;;;;5003220;28;20493;-84
2023/04/06 02:36:17;;;;;;;103.40;57.92;;;-0.80;99.90;;;;;;5002692;28;20561;-82
2023/04/06 02:38:45;;;;;;;89.32;56.17;;;-0.70;99.90;;;;;;5013733;28;20205;-85
2023/04/06 02:41:12;;;;;;;91.93;57.60;;;-0.70;99.90;;;;;;5011911;28;20297;-82
2023/04/06 02:43:39;;;;;;;91.75;59.53;;;-0.70;99.90;;;;;;5005138;28;20209;-81
2023/04/06 02:46:06;;;;;;;107.43;61.33;;;-0.70;99.90;;;;;;4982058;28;20233;-81
2023/04/06 02:48:36;;;;;;;87.00;56.05;;;-0.60;99.90;;;;;;5015380;28;20212;-82
2023/04/06 02:51:03;;;;;;;99.20;62.08;;;-0.70;99.90;;;;;;4989912;28;20697;-84
2023/04/06 02:53:31;;;;;;;105.28;62.28;;;-0.70;99.90;;;;;;5016588;28;20256;-83
2023/04/06 02:56:03;;;;;;;93.95;58.63;;;-0.70;99.90;;;;;;5000645;28;20256;-82
2023/04/06 02:58:30;;;;;;;102.80;64.05;;;-1.00;99.90;;;;;;5011867;28;20208;-82
2023/04/06 03:00:57;;;;;;;86.40;59.05;;;-0.90;99.90;;;;;;5001139;28;20268;-83
2023/04/06 03:03:26;;;;;;;114.28;66.00;;;-0.80;99.90;;;;;;4998110;28;20214;-84
2023/04/06 03:05:56;;;;;;;97.07;60.72;;;-0.70;99.90;;;;;;5021679;28;20224;-82
2023/04/06 03:08:24;;;;;;;94.00;61.50;;;-0.70;99.90;;;;;;5017129;28;20190;-82
2023/04/06 03:10:51;;;;;;;112.32;65.82;;;-0.70;99.90;;;;;;5024610;28;20186;-82
2023/04/06 03:13:18;;;;;;;100.32;66.05;;;-0.90;99.90;;;;;;5015455;28;20197;-83
2023/04/06 03:15:45;;;;;;;107.13;60.78;;;-0.90;99.90;;;;;;5004326;28;20229;-85
2023/04/06 03:18:15;;;;;;;92.85;60.05;;;-0.80;99.90;;;;;;4991901;28;20521;-81
2023/04/06 03:20:42;;;;;;;98.65;63.70;;;-0.70;99.90;;;;;;5007144;28;20210;-81
2023/04/06 03:23:11;;;;;;;92.82;61.20;;;-0.80;99.90;;;;;;5002758;28;20256;-81
2023/04/06 03:25:40;;;;;;;93.05;61.85;;;-0.90;99.90;;;;;;5011851;28;20214;-80
2023/04/06 03:28:07;;;;;;;87.05;58.17;;;-1.00;99.90;;;;;;5002821;28;20222;-82
2023/04/06 03:30:35;;;;;;;100.68;64.55;;;-1.00;99.90;;;;;;5010254;28;20233;-83
2023/04/06 03:33:04;;;;;;;98.45;62.25;;;-1.00;99.90;;;;;;4984327;28;20212;-82
2023/04/06 03:35:32;;;;;;;88.45;63.05;;;-0.90;99.90;;;;;;5005287;28;20235;-85
2023/04/06 03:38:00;;;;;;;105.18;65.78;;;-0.90;99.90;;;;;;5009717;28;20270;-80
2023/04/06 03:40:27;;;;;;;98.00;66.35;;;-0.90;99.90;;;;;;5003556;28;20209;-81
2023/04/06 03:42:55;;;;;;;96.97;67.13;;;-0.90;99.90;;;;;;4980564;28;20819;-80
2023/04/06 03:45:23;;;;;;;99.30;68.20;;;-0.90;99.90;;;;;;5001819;28;20498;-80
2023/04/06 03:47:51;;;;;;;108.75;66.75;;;-1.00;99.90;;;;;;5004086;28;20217;-82
2023/04/06 03:50:19;;;;;;;110.45;67.93;;;-1.20;99.90;;;;;;5005323;28;20205;-80
2023/04/06 03:52:47;;;;;;;98.30;61.53;;;-1.10;99.90;;;;;;5002785;28;20218;-81
2023/04/06 03:55:15;;;;;;;89.55;62.65;;;-1.10;99.90;;;;;;5002072;28;20286;-82
2023/04/06 03:57:43;;;;;;;87.10;58.10;;;-1.20;99.90;;;;;;5008521;28;20193;-80
2023/04/06 04:00:12;;;;;;;98.10;61.53;;;-1.40;99.90;;;;;;5007627;28;20201;-84
2023/04/06 04:02:39;;;;;;;102.85;57.53;;;-1.10;99.90;;;;;;5003277;28;20198;-80
2023/04/06 04:05:07;;;;;;;91.03;61.47;;;-1.10;99.90;;;;;;5008952;28;20273;-80
2023/04/06 04:07:35;;;;;;;95.68;59.33;;;-0.90;99.90;;;;;;5005550;28;20212;-80
2023/04/06 04:10:02;;;;;;;97.50;62.85;;;-0.80;99.90;;;;;;4992031;28;20211;-80
2023/04/06 04:12:29;;;;;;;106.55;65.45;;;-0.80;99.90;;;;;;5000024;28;20213;-83
2023/04/06 04:14:56;;;;;;;97.47;64.72;;;-0.80;99.90;;;;;;5006429;28;20237;-80
2023/04/06 04:17:25;;;;;;;96.25;57.55;;;-0.90;99.90;;;;;;4998535;28;20377;-81
2023/04/06 04:19:52;;;;;;;96.38;56.20;;;-1.10;99.90;;;;;;4998581;28;20269;-81
2023/04/06 04:22:20;;;;;;;93.70;56.20;;;-1.10;99.90;;;;;;5004467;28;20209;-80
2023/04/06 04:24:48;;;;;;;90.30;58.65;;;-1.00;99.90;;;;;;5003708;28;20257;-80
2023/04/06 04:27:15;;;;;;;86.18;58.58;;;-1.00;99.90;;;;;;5015671;28;20202;-81
2023/04/06 04:29:43;;;;;;;94.50;59.88;;;-0.80;99.90;;;;;;5003793;28;20206;-81
2023/04/06 04:32:10;;;;;;;100.30;61.30;;;-0.80;99.90;;;;;;4998610;28;20205;-81
2023/04/06 04:34:40;;;;;;;92.30;62.70;;;-0.80;99.90;;;;;;5004568;28;20205;-80
2023/04/06 04:37:06;;;;;;;103.53;63.83;;;-0.90;99.90;;;;;;4999261;28;20226;-80
2023/04/06 04:39:35;;;;;;;108.20;70.55;;;-0.80;99.90;;;;;;4995418;28;20665;-83
2023/04/06 04:42:01;;;;;;;107.65;72.30;;;-0.70;99.90;;;;;;5004875;28;20208;-83
2023/04/06 04:44:36;;;;;;;96.20;64.93;;;-0.70;99.90;;;;;;5005275;28;20203;-83
2023/04/06 04:47:03;;;;;;;99.40;66.95;;;-0.60;99.90;;;;;;5018716;28;20430;-82
2023/04/06 04:49:31;;;;;;;96.93;65.75;;;-0.70;99.90;;;;;;5010302;28;20197;-84
2023/04/06 04:51:58;;;;;;;99.00;65.95;;;-0.70;99.90;;;;;;4992265;28;20406;-85
2023/04/06 04:54:26;;;;;;;112.75;69.47;;;-0.80;99.90;;;;;;4995750;28;20209;-83
2023/04/06 04:56:53;;;;;;;108.85;72.10;;;-0.60;99.90;;;;;;5009205;28;20225;-85
2023/04/06 04:59:20;;;;;;;110.97;71.05;;;-0.30;99.90;;;;;;5011752;28;20249;-83
2023/04/06 05:01:47;;;;;;;111.05;68.90;;;-0.10;99.90;;;;;;5012194;28;20206;-82
2023/04/06 05:04:23;;;;;;;106.70;71.10;;;0.00;99.90;;;;;;4987291;28;20265;-83
2023/04/06 05:06:50;;;;;;;105.03;72.50;;;0.00;99.90;;;;;;4998650;28;20206;-84
2023/04/06 05:09:17;;;;;;;103.55;68.05;;;0.10;99.90;;;;;;5001982;28;20197;-83
2023/04/06 05:11:44;;;;;;;100.32;68.10;;;0.30;99.90;;;;;;5012600;28;20219;-85
2023/04/06 05:14:11;;;;;;;87.80;62.60;;;0.40;99.90;;;;;;5007546;28;20200;-83
2023/04/06 05:16:50;;;;;;;94.55;63.38;;;0.40;99.90;;;;;;4979938;28;20552;-84
2023/04/06 05:19:17;;;;;;;111.70;69.30;;;0.30;99.90;;;;;;5011199;28;20243;-83
2023/04/06 05:21:45;;;;;;;95.95;64.40;;;0.40;99.90;;;;;;5007550;28;20394;-86
2023/04/06 05:24:20;;;;;;;94.00;60.88;;;0.60;99.90;;;;;;4999547;28;20220;-84
2023/04/06 05:26:48;;;;;;;86.95;64.03;;;0.60;99.90;;;;;;5008280;28;20523;-85
2023/04/06 05:29:16;;;;;;;87.20;56.10;;;0.60;99.90;;;;;;4997595;28;20210;-82
2023/04/06 05:31:43;;;;;;;83.60;53.45;;;0.50;99.90;;;;;;5009270;28;20204;-83
2023/04/06 05:34:12;;;;;;;80.47;50.10;;;0.80;99.90;;;;;;5008288;28;20228;-82
2023/04/06 05:36:40;;;;;;;74.45;48.80;;;0.90;99.90;;;;;;4993958;28;20218;-82
2023/04/06 05:39:07;;;;;;;76.40;47.15;;;1.20;99.90;;;;;;5013677;28;20215;-82
2023/04/06 05:41:35;;;;;;;73.22;46.47;;;1.50;99.90;;;;;;5035226;28;20249;-83
2023/04/06 05:44:03;;;;;;;71.72;46.58;;;1.70;99.90;;;;;;5015732;28;20238;-84
2023/04/06 05:46:30;;;;;;;64.32;43.17;;;1.80;99.90;;;;;;5022805;28;20190;-83
2023/04/06 05:48:57;;;;;;;63.45;40.97;;;1.80;99.90;;;;;;5022752;28;20211;-83
2023/04/06 05:51:24;;;;;;;64.47;41.45;;;2.10;99.90;;;;;;4995974;28;20239;-81
2023/04/06 05:53:51;;;;;;;57.38;39.63;;;2.30;99.90;;;;;;4973880;28;20249;-81
2023/04/06 05:56:18;;;;;;;53.55;38.00;;;2.70;99.90;;;;;;5007509;28;20447;-81
2023/04/06 05:58:48;;;;;;;69.05;38.33;;;3.00;99.90;;;;;;4988761;28;20231;-82
2023/04/06 06:01:15;;;;;;;55.35;37.08;;;3.30;99.90;;;;;;5010871;28;20553;-83
2023/04/06 06:03:42;;;;;;;40.38;32.72;;;3.40;99.90;;;;;;4986129;28;20210;-80
2023/04/06 06:06:11;;;;;;;48.47;30.42;;;3.90;99.90;;;;;;4987675;28;20262;-80
2023/04/06 06:08:38;;;;;;;53.72;33.78;;;4.30;99.90;;;;;;4993569;28;20209;-80
2023/04/06 06:11:06;;;;;;;51.50;32.08;;;4.50;99.90;;;;;;4999233;28;20213;-80
2023/04/06 06:13:33;;;;;;;51.33;33.13;;;4.90;99.90;;;;;;4999902;28;20248;-79
2023/04/06 06:16:00;;;;;;;38.97;30.95;;;5.10;99.90;;;;;;5007804;28;20623;-81
2023/04/06 06:18:26;;;;;;;39.00;29.58;;;5.90;99.90;;;;;;5004132;28;20211;-80
2023/04/06 06:20:54;;;;;;;42.85;28.95;;;6.50;99.90;;;;;;4994189;28;20201;-81
2023/04/06 06:23:21;;;;;;;45.38;28.55;;;7.40;99.90;;;;;;5003911;28;20202;-80
2023/04/06 06:25:48;;;;;;;33.22;25.23;;;8.00;99.90;;;;;;4998713;28;20206;-81
2023/04/06 06:28:16;;;;;;;40.70;28.17;;;8.50;99.90;;;;;;5002776;28;20200;-81
2023/04/06 06:30:43;;;;;;;44.58;26.17;;;8.70;99.90;;;;;;4998104;28;20348;-80
2023/04/06 06:33:10;;;;;;;34.47;27.10;;;8.80;99.90;;;;;;4993563;28;20205;-79
2023/04/06 06:35:37;;;;;;;45.00;28.23;;;9.10;99.90;;;;;;5004135;28;20666;-80
2023/04/06 06:38:05;;;;;;;39.85;26.55;;;9.40;99.90;;;;;;5003250;28;20413;-80
2023/04/06 06:40:32;;;;;;;34.40;26.83;;;10.60;99.90;;;;;;5005221;28;20430;-81
2023/04/06 06:42:59;;;;;;;41.38;29.33;;;11.30;99.90;;;;;;5000688;28;20202;-81
2023/04/06 06:45:26;;;;;;;37.53;28.08;;;11.30;99.90;;;;;;4987696;28;20317;-82
2023/04/06 06:47:53;;;;;;;38.70;27.50;;;12.00;99.90;;;;;;5011741;28;20219;-79
2023/04/06 06:50:21;;;;;;;30.23;26.92;;;12.40;99.90;;;;;;5003723;28;20236;-79
2023/04/06 06:52:48;;;;;;;42.78;26.27;;;13.60;99.90;;;;;;5002059;28;20210;-78
2023/04/06 06:55:15;;;;;;;41.72;27.77;;;13.80;99.90;;;;;;5011557;28;20208;-81
2023/04/06 06:57:42;;;;;;;37.00;27.13;;;14.90;99.90;;;;;;5008950;28;20882;-81
2023/04/06 07:00:10;;;;;;;42.22;28.08;;;15.40;99.90;;;;;;5000638;28;20197;-79
2023/04/06 07:02:39;;;;;;;31.75;25.85;;;15.10;99.90;;;;;;5004274;28;20217;-78
2023/04/06 07:05:06;;;;;;;38.00;27.35;;;13.90;99.90;;;;;;5005452;28;20217;-79
2023/04/06 07:07:53;;;;;;;39.03;27.40;;;14.60;99.90;;;;;;4998488;28;20320;-79
2023/04/06 07:10:20;;;;;;;31.83;28.37;;;16.20;99.90;;;;;;5005304;28;20457;-80
2023/04/06 07:12:47;;;;;;;30.70;27.40;;;16.40;99.90;;;;;;5002594;28;20444;-81
2023/04/06 07:15:14;;;;;;;35.47;26.00;;;16.40;97.70;;;;;;4998293;28;20497;-81
2023/04/06 07:17:43;;;;;;;31.73;24.13;;;16.30;97.60;;;;;;4987460;28;20703;-78
2023/04/06 07:20:10;;;;;;;32.90;25.37;;;15.80;99.30;;;;;;4985420;28;20491;-79
2023/04/06 07:22:38;;;;;;;42.27;27.30;;;16.70;97.00;;;;;;5011728;28;20454;-79
2023/04/06 07:25:06;;;;;;;34.27;25.37;;;17.00;95.50;;;;;;5003501;28;20455;-78
2023/04/06 07:27:33;;;;;;;32.10;23.90;;;17.00;94.90;;;;;;4982827;28;20421;-80
2023/04/06 07:30:00;;;;;;;42.33;25.80;;;17.70;94.30;;;;;;5000472;28;20465;-78
2023/04/06 07:32:27;;;;;;;30.40;25.37;;;16.90;93.10;;;;;;5008820;28;20443;-80
2023/04/06 07:34:53;;;;;;;34.03;25.50;;;15.00;96.00;;;;;;5001833;28;20448;-79
2023/04/06 07:37:21;;;;;;;33.60;24.63;;;15.00;99.10;;;;;;5003513;28;20461;-79
2023/04/06 07:39:48;;;;;;;26.00;21.20;;;16.60;95.80;;;;;;5007129;28;20439;-81
2023/04/06 07:42:15;;;;;;;27.53;22.07;;;17.00;94.20;;;;;;5006284;28;20474;-79
2023/04/06 07:44:43;;;;;;;26.43;21.80;;;14.50;97.00;;;;;;4999492;28;20418;-79
2023/04/06 07:47:09;;;;;;;24.17;20.10;;;14.40;98.70;;;;;;5009635;28;20647;-81
2023/04/06 07:49:36;;;;;;;28.63;22.43;;;14.70;98.00;;;;;;5009520;28;20422;-82
2023/04/06 07:52:03;;;;;;;33.47;22.40;;;13.50;99.20;;;;;;4973810;28;20466;-78
2023/04/06 07:54:31;;;;;;;28.50;22.47;;;13.90;99.90;;;;;;5000933;28;20414;-84
2023/04/06 07:56:58;;;;;;;25.10;22.13;;;15.10;97.80;;;;;;5006651;28;20469;-79
2023/04/06 07:59:26;;;;;;;30.70;23.17;;;14.90;98.70;;;;;;4993996;28;20490;-79
2023/04/06 08:01:53;;;;;;;23.50;20.70;;;15.20;96.80;;;;;;5010620;28;20527;-81
2023/04/06 08:04:20;;;;;;;25.83;18.23;;;16.10;93.80;;;;;;5002763;28;20444;-81
2023/04/06 08:06:47;;;;;;;25.80;18.60;;;16.50;92.30;;;;;;5010077;28;20670;-80
2023/04/06 08:09:14;;;;;;;25.73;18.73;;;17.10;88.00;;;;;;5001659;28;20445;-83
2023/04/06 08:11:41;;;;;;;23.67;17.33;;;15.40;89.20;;;;;;4989220;28;20449;-80
2023/04/06 08:14:08;;;;;;;24.03;15.70;;;15.60;88.40;;;;;;5005986;28;20476;-83
2023/04/06 08:16:37;;;;;;;17.23;13.87;;;15.40;85.20;;;;;;5012028;28;20493;-82
2023/04/06 08:19:07;;;;;;;20.17;15.40;;;15.90;82.10;;;;;;4982234;28;20418;-79
2023/04/06 08:21:34;;;;;;;18.37;13.83;;;16.60;83.30;;;;;;4987957;28;20469;-80
2023/04/06 08:24:01;;;;;;;16.70;12.50;;;17.30;76.90;;;;;;4998529;28;20447;-80
2023/04/06 08:26:28;;;;;;;12.63;10.37;;;17.10;76.20;;;;;;5011276;28;20425;-82
2023/04/06 08:28:55;;;;;;;19.13;13.87;;;15.10;77.00;;;;;;4984360;28;20450;-82
2023/04/06 08:31:23;;;;;;;21.67;14.00;;;16.50;75.20;;;;;;5008455;28;20510;-81
2023/04/06 08:33:50;;;;;;;20.20;15.90;;;17.50;71.90;;;;;;4991497;28;20427;-81
2023/04/06 08:36:22;;;;;;;19.30;14.93;;;17.30;72.80;;;;;;4988737;28;20452;-82
2023/04/06 08:38:50;;;;;;;17.87;11.47;;;18.20;68.90;;;;;;4998956;28;20419;-81
2023/04/06 08:41:17;;;;;;;18.20;10.93;;;16.10;68.60;;;;;;4999312;28;20450;-79
2023/04/06 08:44:04;;;;;;;10.80;9.40;;;15.50;73.00;;;;;;4996574;28;20766;-78
2023/04/06 08:46:31;;;;;;;12.33;9.67;;;17.40;66.40;;;;;;4998345;28;20440;-84
2023/04/06 08:49:01;;;;;;;15.53;11.50;;;18.20;62.90;;;;;;4984545;28;20455;-79
2023/04/06 08:51:30;;;;;;;23.50;14.30;;;16.10;64.60;;;;;;5006471;28;20496;-80
2023/04/06 08:53:58;;;;;;;14.70;11.03;;;17.50;66.90;;;;;;4999568;28;20551;-79
2023/04/06 08:56:27;;;;;;;13.17;11.70;;;17.10;64.60;;;;;;4999482;28;20807;-78
2023/04/06 08:58:55;;;;;;;14.17;10.23;;;16.20;68.40;;;;;;5002723;28;20452;-78
2023/04/06 09:01:30;;;;;;;12.20;10.43;;;16.60;67.70;;;;;;5007334;28;20422;-81
2023/04/06 09:04:04;;;;;;;11.37;9.30;;;17.00;64.90;;;;;;4996811;28;20429;-81
2023/04/06 09:06:36;;;;;;;10.87;8.27;;;16.70;63.20;;;;;;4998449;28;20447;-80
2023/04/06 09:09:04;;;;;;;11.40;8.93;;;14.80;66.80;;;;;;4998495;28;20739;-80
2023/04/06 09:11:47;;;;;;;13.70;9.00;;;13.40;69.50;;;;;;5000723;28;21574;-84
2023/04/06 09:14:32;;;;;;;10.20;8.40;;;14.70;69.60;;;;;;5002823;28;20817;-77
2023/04/06 09:16:59;;;;;;;12.82;8.57;;;14.40;68.90;;;;;;4999377;28;20461;-79
2023/04/06 09:19:28;;;;;;;13.90;9.82;;;14.40;68.70;;;;;;4982313;28;20209;-78
2023/04/06 09:22:06;;;;;;;16.70;9.05;;;14.30;69.40;;;;;;4998025;28;20205;-80
2023/04/06 09:24:46;;;;;;;12.02;9.27;;;12.90;72.30;;;;;;4983555;28;20205;-79
2023/04/06 09:27:15;;;;;;;13.77;9.75;;;12.30;76.50;;;;;;4998778;28;20220;-79
2023/04/06 09:29:43;;;;;;;12.93;10.15;;;11.00;82.30;;;;;;5009144;28;20205;-77
2023/04/06 09:32:11;;;;;;;13.35;10.88;;;10.20;89.60;;;;;;5009406;28;20639;-79
2023/04/06 09:34:39;;;;;;;12.63;9.85;;;9.70;92.40;;;;;;5003523;28;20447;-83
2023/04/06 09:37:17;;;;;;;10.02;8.00;;;9.50;93.60;;;;;;4999730;28;20625;-78
2023/04/06 09:39:45;;;;;;;12.90;10.38;;;9.80;93.60;;;;;;4997769;28;20392;-78
2023/04/06 09:42:25;;;;;;;12.07;8.20;;;9.90;92.20;;;;;;5010943;28;20228;-79
2023/04/06 09:44:52;;;;;;;6.75;6.03;;;9.50;93.10;;;;;;5011733;28;20201;-80
2023/04/06 09:47:20;;;;;;;8.07;6.80;;;9.20;92.70;;;;;;4981402;28;20260;-82
2023/04/06 09:49:50;;;;;;;9.27;6.60;;;9.00;93.10;;;;;;4991818;28;20623;-79
2023/04/06 09:52:19;;;;;;;9.00;7.93;;;9.10;94.30;;;;;;4988274;28;20210;-80
2023/04/06 09:54:49;;;;;;;10.02;7.22;;;9.40;94.00;;;;;;5005858;28;20483;-81
2023/04/06 09:57:31;;;;;;;8.73;7.07;;;9.10;93.90;;;;;;4997434;28;20272;-78
2023/04/06 10:00:11;;;;;;;9.82;7.38;;;9.50;94.00;;;;;;4978880;28;20469;-79
2023/04/06 10:03:01;;;;;;;7.68;6.60;;;9.20;94.10;;;;;;4971593;28;20198;-79
2023/04/06 10:05:50;;;;;;;14.85;6.43;;;9.00;95.30;;;;;;4993142;28;20237;-79
2023/04/06 10:08:19;;;;;;;8.50;6.15;;;9.40;94.50;;;;;;5017784;28;20287;-78
2023/04/06 10:10:46;;;;;;;8.98;5.95;;;9.60;94.10;;;;;;5013622;28;20182;-82
2023/04/06 10:13:13;;;;;;;8.65;7.45;;;9.60;95.10;;;;;;5033593;28;20192;-78
2023/04/06 10:15:42;;;;;;;8.93;6.53;;;8.90;95.60;;;;;;5019990;28;20198;-79
2023/04/06 10:18:10;;;;;;;8.85;6.57;;;8.60;97.50;;;;;;5027378;28;20224;-81
2023/04/06 10:21:08;;;;;;;7.07;6.00;;;8.30;97.80;;;;;;4993015;28;20206;-80
2023/04/06 10:23:43;;;;;;;8.73;6.95;;;8.10;97.20;;;;;;5005925;28;20209;-81
2023/04/06 10:26:16;;;;;;;9.40;8.30;;;8.40;97.70;;;;;;5005074;28;20209;-81
2023/04/06 10:28:45;;;;;;;9.07;6.40;;;8.70;96.70;;;;;;5016261;28;20208;-82
2023/04/06 10:31:13;;;;;;;13.65;7.22;;;8.40;97.50;;;;;;5002725;28;20433;-81
2023/04/06 10:33:57;;;;;;;13.27;7.43;;;8.50;97.50;;;;;;5013458;28;20540;-79
2023/04/06 10:36:28;;;;;;;10.30;7.50;;;8.70;97.90;;;;;;4997727;28;20205;-83
2023/04/06 10:39:02;;;;;;;10.38;8.40;;;9.10;96.90;;;;;;4985117;28;20237;-78
2023/04/06 10:41:34;;;;;;;7.00;5.95;;;9.40;96.60;;;;;;4995820;28;20264;-83
2023/04/06 10:44:02;;;;;;;10.93;6.95;;;9.20;96.60;;;;;;5001694;28;20209;-78
2023/04/06 10:46:31;;;;;;;7.70;6.47;;;8.80;97.30;;;;;;5013951;28;20190;-81
2023/04/06 10:48:58;;;;;;;8.73;6.28;;;8.40;97.60;;;;;;5025656;28;20269;-80
2023/04/06 10:51:28;;;;;;;7.05;5.70;;;8.10;98.70;;;;;;5003597;28;20390;-83
2023/04/06 10:53:58;;;;;;;6.85;6.18;;;7.80;97.90;;;;;;4999379;28;20210;-80
2023/04/06 10:56:27;;;;;;;9.30;6.63;;;7.90;98.30;;;;;;4999335;28;20241;-80
2023/04/06 10:58:55;;;;;;;8.07;5.15;;;8.10;97.70;;;;;;5012124;28;20238;-82
2023/04/06 11:01:26;;;;;;;12.15;6.43;;;8.30;98.10;;;;;;4991212;28;20216;-82
2023/04/06 11:03:55;;;;;;;7.07;5.60;;;8.70;98.10;;;;;;4998872;28;20236;-82
2023/04/06 11:06:24;;;;;;;7.18;5.45;;;8.90;96.30;;;;;;5007796;28;20212;-80
2023/04/06 11:08:52;;;;;;;9.18;6.28;;;8.70;96.60;;;;;;5010864;28;20210;-81
2023/04/06 11:11:21;;;;;;;8.57;5.65;;;8.20;96.70;;;;;;5001943;28;20735;-81
2023/04/06 11:13:52;;;;;;;7.00;5.30;;;7.90;98.10;;;;;;4995052;28;20213;-81
2023/04/06 11:16:25;;;;;;;7.75;6.38;;;8.00;98.60;;;;;;5003583;28;20210;-81
2023/04/06 11:18:58;;;;;;;9.20;6.07;;;7.90;98.60;;;;;;5001619;28;20233;-79
2023/04/06 11:21:47;;;;;;;7.60;5.93;;;8.00;99.90;;;;;;5004201;28;20209;-79
2023/04/06 11:24:24;;;;;;;7.25;6.07;;;8.40;98.80;;;;;;5006415;28;20304;-78
2023/04/06 11:26:52;;;;;;;6.65;5.85;;;8.60;98.10;;;;;;4984724;28;20209;-79
2023/04/06 11:29:24;;;;;;;7.40;6.20;;;8.80;97.90;;;;;;5007189;28;20210;-84
2023/04/06 11:32:00;;;;;;;10.82;5.82;;;9.00;97.50;;;;;;4997686;28;20280;-81
2023/04/06 11:34:29;;;;;;;6.00;5.40;;;8.80;97.60;;;;;;5008593;28;20501;-81
2023/04/06 11:36:58;;;;;;;11.90;7.38;;;8.60;99.30;;;;;;5004621;28;20209;-81
2023/04/06 11:39:27;;;;;;;7.20;5.35;;;8.40;98.30;;;;;;5002363;28;20205;-79
2023/04/06 11:41:58;;;;;;;8.93;7.20;;;8.20;98.80;;;;;;5002161;28;20252;-81
2023/04/06 11:44:36;;;;;;;7.95;6.05;;;8.10;99.30;;;;;;4999269;28;20221;-81
2023/04/06 11:47:05;;;;;;;6.80;6.07;;;8.00;99.30;;;;;;4998478;28;20209;-79
2023/04/06 11:49:36;;;;;;;8.73;6.55;;;7.90;99.90;;;;;;4987038;28;20212;-80
2023/04/06 11:52:17;;;;;;;8.77;6.70;;;8.00;99.90;;;;;;5007525;28;20554;-80
2023/04/06 11:54:44;;;;;;;9.57;6.57;;;8.30;99.90;;;;;;5002198;28;20242;-79
2023/04/06 11:57:11;;;;;;;6.57;5.95;;;8.70;99.90;;;;;;4985464;28;20217;-79
2023/04/06 11:59:38;;;;;;;8.52;5.63;;;9.00;99.00;;;;;;5000552;28;20202;-79
2023/04/06 12:02:05;;;;;;;9.38;6.88;;;8.90;99.40;;;;;;5006965;28;20210;-80
2023/04/06 12:04:33;;;;;;;7.03;6.32;;;8.70;98.80;;;;;;4997317;28;20245;-81
2023/04/06 12:07:00;;;;;;;7.18;5.70;;;8.70;98.80;;;;;;5005273;28;20276;-80
2023/04/06 12:09:27;;;;;;;10.07;7.32;;;8.90;99.40;;;;;;5000161;28;20217;-80
2023/04/06 12:11:53;;;;;;;8.85;6.53;;;9.00;98.00;;;;;;5000270;28;20201;-80
2023/04/06 12:14:20;;;;;;;7.32;5.28;;;8.70;98.50;;;;;;5003666;28;20202;-80
2023/04/06 12:16:47;;;;;;;5.32;4.55;;;8.90;98.80;;;;;;5005092;28;20222;-82
2023/04/06 12:19:14;;;;;;;7.18;6.47;;;8.70;98.00;;;;;;4993887;28;20572;-83
2023/04/06 12:21:41;;;;;;;6.57;5.97;;;8.70;96.90;;;;;;5009354;28;20543;-78
2023/04/06 12:24:09;;;;;;;9.38;6.35;;;8.40;97.40;;;;;;4998876;28;20615;-80
2023/04/06 12:26:41;;;;;;;8.93;6.65;;;8.20;98.30;;;;;;5003799;28;20213;-80
2023/04/06 12:29:08;;;;;;;9.98;6.28;;;8.40;99.30;;;;;;4995067;28;20228;-79
2023/04/06 12:31:38;;;;;;;9.70;6.80;;;8.30;99.50;;;;;;5005362;28;20209;-78
2023/04/06 12:34:05;;;;;;;7.47;6.75;;;8.20;99.50;;;;;;4985027;28;20214;-83
2023/04/06 12:36:33;;;;;;;9.18;7.13;;;8.20;99.40;;;;;;4998271;28;20205;-80
2023/04/06 12:39:02;;;;;;;6.90;6.20;;;8.40;99.90;;;;;;5005493;28;20243;-79
2023/04/06 12:41:30;;;;;;;9.25;7.65;;;8.50;99.90;;;;;;5006658;28;20268;-81
2023/04/06 12:43:59;;;;;;;8.10;7.05;;;8.70;99.90;;;;;;4998068;28;20221;-80